M I D A S
Marine Information and Data Acquisition System
Tripno 2121 of the Zeeleeuw from 2011-06-16 07:04:24 to 2011-06-16 16:24:50
Back to CruiseResearch ActivitiesStationsMapUnderway DataData graphs

EquipmentUnitsComment
TimeDGPSUTC
LatitudeDGPSDM.mWGS84
LongitudeDGPSDM.mWGS84
TemperatureSBE03/SBE38deg celciusITS90
ConductivitySBE21S/mITS90
SalinitySBE21 Practical Salinity Units
ChlorophylAChelsea fluorimeterg/lCalibrated in Aceton
Missing or incorrect values are displayed as -999
Sea surface data collected by the RV Zeeleeuw from 2011-06-16 06:53:31 to 2011-06-16 16:31:56
Time Latitude Longitude Temperature Conductivity Salinity ChlorophylA
2011-06-16 06:54:39 51°13.658 2°55.935 19.4924 0.012073 0.064343 -3.020363
2011-06-16 06:55:39 51°13.679 2°55.837 19.4999 0.012073 0.064351 -3.020363
2011-06-16 06:56:39 51°13.693 2°55.753 19.5022 0.012073 0.064359 -3.020363
2011-06-16 06:57:39 51°13.703 2°55.752 19.4752 0.012073 0.064368 -3.020363
2011-06-16 06:58:39 51°13.687 2°55.733 19.535 0.012073 0.064376 -3.020363
2011-06-16 06:59:39 51°13.746 2°55.705 19.5148 0.012073 0.064384 -3.020363
2011-06-16 07:00:39 51°13.871 2°55.611 19.4813 0.012073 0.064391 -3.020363
2011-06-16 07:01:39 51°14.005 2°55.516 19.5343 0.012073 0.064397 -3.020363
2011-06-16 07:02:39 51°14.142 2°55.414 19.4911 0.01197 0.0639 -3.020363
2011-06-16 07:03:39 51°14.284 2°55.305 19.5433 0.01197 0.063907 -3.020363
2011-06-16 07:04:39 51°14.42 2°55.151 19.5023 0.01197 0.063915 -3.020363
2011-06-16 07:05:38 51°14.553 2°54.964 19.4842 0.01197 0.063924 -3.020363
2011-06-16 07:06:37 51°14.715 2°54.778 19.4757 0.01197 0.063931 -3.020363
2011-06-16 07:07:36 51°14.889 2°54.586 19.487 0.01197 0.06394 -3.020363
2011-06-16 07:08:36 51°15.067 2°54.398 19.5085 0.01197 0.063949 -3.020363
2011-06-16 07:09:36 51°15.235 2°54.183 19.4774 0.01197 0.063957 -3.020363
2011-06-16 07:10:36 51°15.408 2°53.981 19.503 0.01197 0.063965 -3.020363
2011-06-16 07:11:35 51°15.568 2°53.76 19.4803 0.01197 0.063973 -3.020363
2011-06-16 07:12:36 51°15.741 2°53.547 19.5058 0.01197 0.063982 -3.020363
2011-06-16 07:13:35 51°15.902 2°53.331 19.49 0.01197 0.063992 -3.020363
2011-06-16 07:14:36 51°16.085 2°53.153 19.4838 0.01197 0.064002 -3.020363
2011-06-16 07:15:36 51°16.262 2°52.963 19.4872 0.01197 0.064014 -3.020363
2011-06-16 07:16:36 51°16.449 2°52.823 19.4857 0.01197 0.064027 -3.020363
2011-06-16 07:17:35 51°16.635 2°52.693 19.4859 0.01197 0.064038 -3.020363
2011-06-16 07:18:35 51°16.826 2°52.589 19.4937 0.01197 0.064051 -3.020363
2011-06-16 07:19:35 51°17.018 2°52.496 19.5113 0.01197 0.064062 -3.020363
2011-06-16 07:20:35 51°17.211 2°52.412 19.5187 0.01197 0.064073 -3.020363
2011-06-16 07:21:35 51°17.406 2°52.372 19.5067 0.01197 0.06408 -3.020363
2011-06-16 07:22:36 51°17.588 2°52.476 19.5133 0.01197 0.064087 -3.020363
2011-06-16 07:23:36 51°17.742 2°52.666 19.5436 0.01197 0.064094 -3.020363
2011-06-16 07:24:36 51°17.887 2°52.872 19.5442 0.01197 0.0641 -3.020363
2011-06-16 07:25:36 51°18.024 2°53.093 19.5553 0.01197 0.064106 -3.020363
2011-06-16 07:26:36 51°18.167 2°53.297 17.5452 0.01197 0.064106 -3.020363
2011-06-16 07:27:36 51°18.3 2°53.52 16.359 4.429286 34.25823 -3.020363
2011-06-16 07:28:36 51°18.441 2°53.728 16.3028 4.375881 34.36451 -3.020363
2011-06-16 07:29:36 51°18.565 2°53.963 16.3035 4.375363 34.41526 -3.020363
2011-06-16 07:30:36 51°18.673 2°54.215 16.3201 4.3764 34.434214 -3.020363
2011-06-16 07:31:36 51°18.791 2°54.457 16.3303 4.369348 34.36582 -3.020363
2011-06-16 07:32:36 51°18.911 2°54.695 16.3402 4.369037 34.358881 -3.020363
2011-06-16 07:33:36 51°19.015 2°54.949 16.3565 4.363955 34.306476 -3.020363
2011-06-16 07:34:35 51°19.12 2°55.192 16.4547 4.346013 34.134116 -3.020363
2011-06-16 07:35:35 51°19.239 2°55.423 16.5603 4.307227 33.702398 -3.020363
2011-06-16 07:36:35 51°19.337 2°55.674 16.6132 4.266992 33.272422 -3.020363
2011-06-16 07:37:36 51°19.41 2°55.955 16.6266 4.256104 33.149414 -3.020363
2011-06-16 07:38:36 51°19.484 2°56.231 16.6476 4.244699 33.044171 -3.020363
2011-06-16 07:39:36 51°19.568 2°56.495 16.7097 4.220229 32.797022 -3.020363
2011-06-16 07:40:35 51°19.639 2°56.764 16.7458 4.200634 32.590863 -3.020363
2011-06-16 07:41:36 51°19.727 2°57.03 16.7794 4.170153 32.291214 -3.020363
2011-06-16 07:42:36 51°19.803 2°57.302 16.7586 4.162896 32.211013 -3.020363
2011-06-16 07:43:36 51°19.892 2°57.562 16.7778 4.160927 32.209543 -3.020363
2011-06-16 07:44:36 51°19.978 2°57.824 16.7838 4.114071 31.786597 -3.020363
2011-06-16 07:45:36 51°20.052 2°58.094 16.7895 4.101944 31.67765 -3.020363
2011-06-16 07:46:36 51°20.126 2°58.364 16.7964 4.098212 31.641701 -3.020363
2011-06-16 07:47:36 51°20.211 2°58.625 16.8058 4.091682 31.579773 -3.020363
2011-06-16 07:48:36 51°20.28 2°58.9 16.813 4.098937 31.635876 -3.020363
2011-06-16 07:49:36 51°20.358 2°59.169 16.8205 4.097486 31.61577 -3.020363
2011-06-16 07:50:36 51°20.44 2°59.438 16.8325 4.091163 31.555039 -3.020363
2011-06-16 07:51:36 51°20.495 2°59.727 16.8362 4.085773 31.502998 -3.020363
2011-06-16 07:52:35 51°20.559 3°0.006 16.8406 4.077688 31.42972 -3.020363
2011-06-16 07:53:36 51°20.618 3°0.3 16.8448 4.07178 31.372036 -3.020363
2011-06-16 07:54:36 51°20.686 3°0.581 16.8469 4.070433 31.360462 -3.020363
2011-06-16 07:55:35 51°20.741 3°0.866 16.8487 4.067738 31.332292 -3.020363
2011-06-16 07:56:35 51°20.808 3°1.151 16.8527 4.064525 31.307842 -3.020363
2011-06-16 07:57:36 51°20.873 3°1.44 16.849 4.06525 31.312188 -3.020363
2011-06-16 07:58:36 51°20.946 3°1.717 16.8472 4.062037 31.284602 -3.020363
2011-06-16 07:59:36 51°21.009 3°2.002 16.852 4.05841 31.25722 -3.020363
2011-06-16 08:00:36 51°21.075 3°2.287 16.8434 4.056544 31.241205 -3.020363
2011-06-16 08:01:36 51°21.136 3°2.575 16.8441 4.057684 31.253498 -3.020363
2011-06-16 08:02:36 51°21.182 3°2.87 16.8322 4.060794 31.283331 -3.020363
2011-06-16 08:03:36 51°21.238 3°3.161 16.8266 4.062038 31.301545 -3.020363
2011-06-16 08:04:36 51°21.294 3°3.457 16.8145 4.062349 31.306727 -3.020363
2011-06-16 08:05:36 51°21.356 3°3.75 16.7952 4.062556 31.316675 -3.020363
2011-06-16 08:06:36 51°21.411 3°4.045 16.7634 4.064629 31.355884 -3.020363
2011-06-16 08:07:36 51°21.455 3°4.343 16.7463 4.06691 31.394411 -3.020363
2011-06-16 08:08:36 51°21.508 3°4.631 16.7424 4.068154 31.416481 -3.020363
2011-06-16 08:09:36 51°21.545 3°4.928 16.7335 4.070745 31.441952 -3.020363
2011-06-16 08:10:36 51°21.592 3°5.218 16.7305 4.071574 31.45605 -3.020363
2011-06-16 08:11:36 51°21.644 3°5.506 16.731 4.071678 31.459474 -3.020363
2011-06-16 08:12:36 51°21.68 3°5.803 16.726 4.071574 31.459214 -3.020363
2011-06-16 08:13:36 51°21.721 3°6.101 16.7305 4.071574 31.459214 -3.020363
2011-06-16 08:14:36 51°21.764 3°6.398 16.7301 4.070123 31.447348 -3.020363
2011-06-16 08:15:36 51°21.801 3°6.7 16.7251 4.070642 31.451179 -3.020363
2011-06-16 08:16:36 51°21.822 3°7.009 16.7258 4.07116 31.456276 -3.020363
2011-06-16 08:17:36 51°21.847 3°7.318 16.7257 4.068569 31.435221 -3.020363
2011-06-16 08:18:36 51°21.828 3°7.63 16.7281 4.069605 31.442251 -3.020363
2011-06-16 08:19:36 51°21.831 3°7.859 16.7441 4.066392 31.412681 -3.020363
2011-06-16 08:20:36 51°21.855 3°7.957 16.7488 4.063283 31.379593 -3.020363
2011-06-16 08:21:36 51°21.861 3°8.019 16.7491 4.06121 31.356703 -3.020363
2011-06-16 08:22:36 51°21.843 3°8.102 16.7507 4.060069 31.344999 -3.020363
2011-06-16 08:23:36 51°21.761 3°8.222 16.7585 4.059862 31.340695 -3.020363
2011-06-16 08:24:36 51°21.68 3°8.269 16.753 4.057167 31.316248 -3.020363
2011-06-16 08:25:36 51°21.604 3°8.278 16.7586 4.053436 31.283518 -3.020363
2011-06-16 08:26:36 51°21.532 3°8.273 16.763 4.051674 31.263962 -3.020363
2011-06-16 08:27:36 51°21.463 3°8.243 16.7612 4.050949 31.257094 -3.020363
2011-06-16 08:28:36 51°21.402 3°8.182 16.763 4.050638 31.253792 -3.020363
2011-06-16 08:29:36 51°21.356 3°8.092 16.7605 4.049394 31.244352 -3.020363
2011-06-16 08:30:36 51°21.331 3°7.982 16.7639 4.048254 31.232037 -3.020363
2011-06-16 08:31:36 51°21.314 3°7.87 16.763 4.050016 31.2497 -3.020363
2011-06-16 08:32:36 51°21.298 3°7.757 16.7578 4.050741 31.256567 -3.020363
2011-06-16 08:33:36 51°21.282 3°7.645 16.7582 4.051467 31.264692 -3.020363
2011-06-16 08:34:36 51°21.264 3°7.535 16.7591 4.051156 31.26139 -3.020363
2011-06-16 08:35:36 51°21.248 3°7.428 16.7617 4.052192 31.270304 -3.020363
2011-06-16 08:36:36 51°21.23 3°7.322 16.7577 4.052089 31.269413 -3.020363
2011-06-16 08:37:36 51°21.21 3°7.216 16.7613 4.052192 31.270304 -3.020363
2011-06-16 08:38:36 51°21.191 3°7.11 16.7596 4.052711 31.274762 -3.020363
2011-06-16 08:39:36 51°21.171 3°7.004 16.7581 4.054058 31.286352 -3.020363
2011-06-16 08:40:36 51°21.152 3°6.897 16.7561 4.052607 31.27387 -3.020363
2011-06-16 08:41:36 51°21.134 3°6.79 16.757 4.054991 31.294376 -3.020363
2011-06-16 08:42:36 51°21.117 3°6.681 16.7744 4.053747 31.284935 -3.020363
2011-06-16 08:43:36 51°21.1 3°6.572 16.7543 4.065044 31.342455 -3.020363
2011-06-16 08:44:36 51°21.08 3°6.464 16.7516 4.058929 31.320076 -3.020363
2011-06-16 08:45:36 51°21.057 3°6.356 16.7525 4.058929 31.321964 -3.020363
2011-06-16 08:46:36 51°21.031 3°6.249 16.7558 4.059758 31.329726 -3.020363
2011-06-16 08:47:36 51°21.002 3°6.144 16.7559 4.060173 31.332033 -3.020363
2011-06-16 08:48:36 51°20.968 3°6.041 16.758 4.060484 31.332819 -3.020363
2011-06-16 08:49:36 51°20.934 3°5.935 16.7562 4.061106 31.336909 -3.020363
2011-06-16 08:50:36 51°20.901 3°5.829 16.7595 4.061209 31.338431 -3.020363
2011-06-16 08:51:36 51°20.871 3°5.724 16.7604 4.061417 31.338325 -3.020363
2011-06-16 08:52:36 51°20.84 3°5.617 16.7605 4.061727 31.33974 -3.020363
2011-06-16 08:53:36 51°20.812 3°5.51 16.7617 4.061935 31.340893 -3.020363
2011-06-16 08:54:36 51°20.785 3°5.405 16.7571 4.062142 31.343936 -3.020363
2011-06-16 08:55:36 51°20.758 3°5.303 16.7603 4.062453 31.34724 -3.020363
2011-06-16 08:56:36 51°20.741 3°5.199 16.7576 4.063178 31.352851 -3.020363
2011-06-16 08:57:36 51°20.745 3°5.099 16.7673 4.063697 31.356679 -3.020363
2011-06-16 08:58:36 51°20.763 3°5.008 16.7693 4.064733 31.360554 -3.020363
2011-06-16 08:59:36 51°20.793 3°4.93 16.7691 4.06577 31.368209 -3.020363
2011-06-16 09:00:36 51°20.832 3°4.889 16.759 4.066702 31.378123 -3.020363
2011-06-16 09:01:36 51°20.868 3°4.896 16.756 4.066806 31.382166 -3.020363
2011-06-16 09:02:36 51°20.88 3°4.955 16.7573 4.066806 31.384688 -3.020363
2011-06-16 09:03:36 51°20.875 3°4.992 16.7545 4.06691 31.386211 -3.020363
2011-06-16 09:04:36 51°20.865 3°5.016 16.7578 4.06691 31.386211 -3.020363
2011-06-16 09:05:36 51°20.852 3°5.029 16.7552 4.067013 31.385841 -3.020363
2011-06-16 09:06:36 51°20.829 3°5.066 16.755 4.067739 31.392083 -3.020363
2011-06-16 09:07:36 51°20.802 3°5.159 16.7613 4.067428 31.388777 -3.020363
2011-06-16 09:08:36 51°20.788 3°5.307 16.7629 4.06691 31.379906 -3.020363
2011-06-16 09:09:36 51°20.803 3°5.465 16.7683 4.065459 31.363645 -3.020363
2011-06-16 09:10:36 51°20.83 3°5.624 16.7557 4.064318 31.354469 -3.020363
2011-06-16 09:11:36 51°20.853 3°5.783 16.7632 4.062557 31.343094 -3.020363
2011-06-16 09:12:36 51°20.869 3°5.944 16.7667 4.060795 31.326053 -3.020363
2011-06-16 09:13:36 51°20.884 3°6.103 16.7721 4.060794 31.322907 -3.020363
2011-06-16 09:14:36 51°20.904 3°6.26 16.777 4.059862 31.310485 -3.020363
2011-06-16 09:15:36 51°20.925 3°6.414 16.774 4.061416 31.321964 -3.020363
2011-06-16 09:16:36 51°20.943 3°6.563 16.7739 4.061727 31.324008 -3.020363
2011-06-16 09:17:36 51°20.956 3°6.712 16.7738 4.061831 31.323642 -3.020363
2011-06-16 09:18:36 51°20.969 3°6.864 16.7786 4.061105 31.319291 -3.020363
2011-06-16 09:19:36 51°20.99 3°7.013 16.7912 4.060483 31.310173 -3.020363
2011-06-16 09:20:36 51°21.011 3°7.162 16.7881 4.059032 31.292675 -3.020363
2011-06-16 09:21:36 51°21.027 3°7.317 16.7825 4.057581 31.28209 -3.020363
2011-06-16 09:22:36 51°21.043 3°7.473 16.7924 4.05613 31.268993 -3.020363
2011-06-16 09:23:36 51°21.065 3°7.627 16.8057 4.054783 31.250516 -3.020363
2011-06-16 09:24:36 51°21.085 3°7.78 16.8046 4.054161 31.235772 -3.020363
2011-06-16 09:25:36 51°21.097 3°7.938 16.8065 4.053539 31.233564 -3.020363
2011-06-16 09:26:36 51°21.113 3°8.096 16.8203 4.053642 31.226937 -3.020363
2011-06-16 09:27:36 51°21.135 3°8.251 16.8281 4.051569 31.201004 -3.020363
2011-06-16 09:28:36 51°21.159 3°8.407 16.8241 4.051051 31.193429 -3.020363
2011-06-16 09:29:36 51°21.175 3°8.568 16.8369 4.049807 31.18088 -3.020363
2011-06-16 09:30:36 51°21.192 3°8.728 16.8492 4.04732 31.148922 -3.020363
2011-06-16 09:31:36 51°21.216 3°8.885 16.8414 4.046076 31.13264 -3.020363
2011-06-16 09:32:36 51°21.241 3°9.043 16.8347 4.047423 31.147314 -3.020363
2011-06-16 09:33:36 51°21.267 3°9.199 16.8443 4.047112 31.14964 -3.020363
2011-06-16 09:34:36 51°21.325 3°9.32 16.8545 4.04421 31.117266 -3.020363
2011-06-16 09:35:36 51°21.413 3°9.336 16.8508 4.042345 31.098154 -3.020363
2011-06-16 09:36:36 51°21.476 3°9.236 16.8515 4.04079 31.085448 -3.020363
2011-06-16 09:37:36 51°21.499 3°9.087 16.8507 4.039546 31.072919 -3.020363
2011-06-16 09:38:36 51°21.477 3°8.93 16.8482 4.039339 31.073009 -3.020363
2011-06-16 09:39:36 51°21.461 3°8.764 16.8378 4.04079 31.088562 -3.020363
2011-06-16 09:40:36 51°21.45 3°8.592 16.8263 4.045454 31.135416 -3.020363
2011-06-16 09:41:36 51°21.438 3°8.423 16.8378 4.050118 31.182299 -3.020363
2011-06-16 09:42:36 51°21.431 3°8.274 16.8328 4.046076 31.138878 -3.020363
2011-06-16 09:43:36 51°21.427 3°8.135 16.8206 4.050533 31.183356 -3.020363
2011-06-16 09:44:36 51°21.423 3°8 16.8171 4.055197 31.231517 -3.020363
2011-06-16 09:45:36 51°21.416 3°7.866 16.793 4.061416 31.291809 -3.020363
2011-06-16 09:46:36 51°21.408 3°7.733 16.7968 4.064007 31.327259 -3.020363
2011-06-16 09:47:36 51°21.402 3°7.599 16.7987 4.064733 31.33035 -3.020363
2011-06-16 09:48:36 51°21.399 3°7.464 16.7973 4.065769 31.339885 -3.020363
2011-06-16 09:49:36 51°21.389 3°7.329 16.7982 4.065665 31.337737 -3.020363
2011-06-16 09:50:36 51°21.362 3°7.201 16.8059 4.066598 31.344494 -3.020363
2011-06-16 09:51:36 51°21.329 3°7.073 16.8098 4.065769 31.332341 -3.020363
2011-06-16 09:52:36 51°21.297 3°6.942 16.8148 4.066391 31.333913 -3.020363
2011-06-16 09:53:36 51°21.266 3°6.809 16.8004 4.073335 31.397352 -3.020363
2011-06-16 09:54:36 51°21.241 3°6.673 16.8032 4.073025 31.411062 -3.020363
2011-06-16 09:55:36 51°21.216 3°6.537 16.8041 4.073128 31.410692 -3.020363
2011-06-16 09:56:36 51°21.189 3°6.405 16.8067 4.074476 31.421016 -3.020363
2011-06-16 09:57:36 51°21.157 3°6.273 16.8144 4.074061 31.41493 -3.020363
2011-06-16 09:58:36 51°21.125 3°6.142 16.8139 4.074165 31.412669 -3.020363
2011-06-16 09:59:36 51°21.083 3°6.033 16.8173 4.074061 31.410517 -3.020363
2011-06-16 10:00:36 51°21.022 3°6.035 16.8109 4.075719 31.422251 -3.020363
2011-06-16 10:01:36 51°21.004 3°6.118 16.8131 4.077067 31.436356 -3.020363
2011-06-16 10:02:36 51°21.025 3°6.23 16.8195 4.075408 31.421469 -3.020363
2011-06-16 10:03:36 51°21.045 3°6.364 16.8167 4.073543 31.401652 -3.020363
2011-06-16 10:04:36 51°21.06 3°6.506 16.8032 4.071988 31.395849 -3.020363
2011-06-16 10:05:36 51°21.077 3°6.65 16.7972 4.073439 31.413996 -3.020363
2011-06-16 10:06:36 51°21.1 3°6.792 16.8011 4.074787 31.427474 -3.020363
2011-06-16 10:07:36 51°21.126 3°6.934 16.8177 4.07489 31.424581 -3.020363
2011-06-16 10:08:36 51°21.15 3°7.077 16.8173 4.073854 31.406215 -3.020363
2011-06-16 10:09:36 51°21.17 3°7.223 16.8093 4.073439 31.405802 -3.020363
2011-06-16 10:10:36 51°21.191 3°7.368 16.809 4.07261 31.403085 -3.020363
2011-06-16 10:11:36 51°21.223 3°7.507 16.8191 4.072403 31.398783 -3.020363
2011-06-16 10:12:36 51°21.305 3°7.63 16.8311 4.071573 31.385988 -3.020363
2011-06-16 10:13:36 51°21.48 3°7.681 16.8562 4.071469 31.371881 -3.020363
2011-06-16 10:14:36 51°21.683 3°7.738 16.8463 4.076963 31.407109 -3.020363
2011-06-16 10:15:36 51°21.89 3°7.754 16.8493 4.087224 31.500942 -3.020363
2011-06-16 10:16:36 51°22.098 3°7.753 16.8525 4.090955 31.527323 -3.020363
2011-06-16 10:17:36 51°22.296 3°7.755 16.8486 4.090437 31.521605 -3.020363
2011-06-16 10:18:36 51°22.472 3°7.711 16.8449 4.09365 31.553013 -3.020363
2011-06-16 10:19:36 51°22.639 3°7.613 16.8295 4.095827 31.574887 -3.020363
2011-06-16 10:20:36 51°22.798 3°7.523 16.8148 4.099144 31.615448 -3.020363
2011-06-16 10:21:36 51°22.947 3°7.447 16.8074 4.100907 31.641394 -3.020363
2011-06-16 10:22:36 51°23.098 3°7.376 16.8101 4.10101 31.646732 -3.020363
2011-06-16 10:23:36 51°23.256 3°7.329 16.7888 4.10298 31.666859 -3.020363
2011-06-16 10:24:36 51°23.417 3°7.323 16.7521 4.105468 31.708642 -3.020363
2011-06-16 10:25:36 51°23.59 3°7.372 16.7415 4.105986 31.73287 -3.020363
2011-06-16 10:26:36 51°23.795 3°7.424 16.7207 4.105883 31.746656 -3.020363
2011-06-16 10:27:36 51°24 3°7.475 16.697 4.107024 31.773746 -3.020363
2011-06-16 10:28:36 51°24.206 3°7.507 16.6605 4.109201 31.810459 -3.020363
2011-06-16 10:29:36 51°24.408 3°7.546 16.6107 4.124335 31.97209 -3.020363
2011-06-16 10:30:36 51°24.565 3°7.577 16.5989 4.137293 32.113326 -3.020363
2011-06-16 10:31:36 51°24.632 3°7.666 16.5968 4.145586 32.192311 -3.020363
2011-06-16 10:32:36 51°24.634 3°7.825 16.6006 4.148696 32.21796 -3.020363
2011-06-16 10:33:36 51°24.625 3°8.005 16.6022 4.150044 32.232244 -3.020363
2011-06-16 10:34:36 51°24.616 3°8.181 16.5988 4.150873 32.23878 -3.020363
2011-06-16 10:35:36 51°24.606 3°8.346 16.5998 4.15077 32.240487 -3.020363
2011-06-16 10:36:36 51°24.597 3°8.507 16.5995 4.149733 32.232152 -3.020363
2011-06-16 10:37:36 51°24.585 3°8.669 16.5923 4.148696 32.224468 -3.020363
2011-06-16 10:38:36 51°24.569 3°8.83 16.593 4.147452 32.213686 -3.020363
2011-06-16 10:39:36 51°24.557 3°8.991 16.5976 4.146208 32.203555 -3.020363
2011-06-16 10:40:36 51°24.566 3°9.146 16.5937 4.145068 32.193672 -3.020363
2011-06-16 10:41:36 51°24.589 3°9.297 16.5964 4.144343 32.188033 -3.020363
2011-06-16 10:42:36 51°24.605 3°9.454 16.5987 4.14372 32.180692 -3.020363
2011-06-16 10:43:36 51°24.613 3°9.615 16.5952 4.143617 32.179144 -3.020363
2011-06-16 10:44:36 51°24.62 3°9.777 16.5976 4.143409 32.176047 -3.020363
2011-06-16 10:45:36 51°24.626 3°9.94 16.5983 4.143099 32.174652 -3.020363
2011-06-16 10:46:36 51°24.635 3°10.103 16.6031 4.143202 32.174251 -3.020363
2011-06-16 10:47:36 51°24.654 3°10.26 16.6055 4.143098 32.172053 -3.020363
2011-06-16 10:48:36 51°24.708 3°10.349 16.6047 4.142995 32.169855 -3.020363
2011-06-16 10:49:36 51°24.769 3°10.354 16.6098 4.143306 32.17125 -3.020363
2011-06-16 10:50:36 51°24.805 3°10.301 16.6089 4.144239 32.176085 -3.020363
2011-06-16 10:51:36 51°24.818 3°10.221 16.6093 4.145172 32.183518 -3.020363
2011-06-16 10:52:36 51°24.818 3°10.13 16.6101 4.146416 32.193646 -3.020363
2011-06-16 10:53:36 51°24.82 3°10.033 16.6128 4.147556 32.200925 -3.020363
2011-06-16 10:54:36 51°24.82 3°9.935 16.6137 4.148178 32.205664 -3.020363
2011-06-16 10:55:36 51°24.817 3°9.834 16.6165 4.148696 32.210805 -3.020363
2011-06-16 10:56:36 51°24.813 3°9.735 16.6152 4.149318 32.214893 -3.020363
2011-06-16 10:57:36 51°24.808 3°9.634 16.6125 4.149733 32.217836 -3.020363
2011-06-16 10:58:36 51°24.809 3°9.537 16.6156 4.150147 32.222729 -3.020363
2011-06-16 10:59:36 51°24.81 3°9.441 16.6138 4.150769 32.227468 -3.020363
2011-06-16 11:00:36 51°24.808 3°9.345 16.6145 4.151702 32.235552 -3.020363
2011-06-16 11:01:36 51°24.802 3°9.249 16.6149 4.152635 32.242334 -3.020363
2011-06-16 11:02:36 51°24.801 3°9.158 16.6142 4.153776 32.253518 -3.020363
2011-06-16 11:03:36 51°24.8 3°9.068 16.6143 4.155331 32.265039 -3.020363
2011-06-16 11:04:36 51°24.798 3°8.976 16.6156 4.156264 32.273775 -3.020363
2011-06-16 11:05:36 51°24.792 3°8.883 16.6134 4.156989 32.280716 -3.020363
2011-06-16 11:06:37 51°24.789 3°8.79 16.6109 4.157819 32.289207 -3.020363
2011-06-16 11:07:36 51°24.789 3°8.702 16.6101 4.158233 32.29541 -3.020363
2011-06-16 11:08:36 51°24.785 3°8.615 16.6065 4.158855 32.301453 -3.020363
2011-06-16 11:09:36 51°24.767 3°8.518 16.6048 4.159374 32.309209 -3.020363
2011-06-16 11:10:36 51°24.743 3°8.402 16.6001 4.160099 32.316153 -3.020363
2011-06-16 11:11:36 51°24.723 3°8.282 16.6043 4.160307 32.319908 -3.020363
2011-06-16 11:12:36 51°24.705 3°8.161 16.601 4.159685 32.315821 -3.020363
2011-06-16 11:13:36 51°24.691 3°8.04 16.6014 4.158545 32.305934 -3.020363
2011-06-16 11:14:36 51°24.678 3°7.92 16.5966 4.157093 32.294655 -3.020363
2011-06-16 11:15:36 51°24.659 3°7.802 16.595 4.156368 32.29032 -3.020363
2011-06-16 11:16:36 51°24.64 3°7.685 16.5936 4.156057 32.288276 -3.020363
2011-06-16 11:17:36 51°24.628 3°7.567 16.5928 4.154916 32.278389 -3.020363
2011-06-16 11:18:36 51°24.616 3°7.451 16.5913 4.152532 32.261628 -3.020363
2011-06-16 11:19:36 51°24.601 3°7.334 16.5848 4.15077 32.248303 -3.020363
2011-06-16 11:20:36 51°24.584 3°7.218 16.5864 4.149318 32.236372 -3.020363
2011-06-16 11:21:36 51°24.566 3°7.101 16.588 4.147556 32.221093 -3.020363
2011-06-16 11:22:36 51°24.553 3°6.987 16.59 4.148904 32.230823 -3.020363
2011-06-16 11:23:36 51°24.545 3°6.873 16.5891 4.149733 32.23671 -3.020363
2011-06-16 11:24:36 51°24.531 3°6.759 16.5885 4.148593 32.229429 -3.020363
2011-06-16 11:25:36 51°24.515 3°6.646 16.5862 4.147245 32.218397 -3.020363
2011-06-16 11:26:36 51°24.504 3°6.531 16.586 4.145794 32.207117 -3.020363
2011-06-16 11:27:36 51°24.497 3°6.418 16.5844 4.144446 32.196736 -3.020363
2011-06-16 11:28:36 51°24.489 3°6.305 16.5843 4.144135 32.195341 -3.020363
2011-06-16 11:29:36 51°24.477 3°6.192 16.5812 4.145379 32.205475 -3.020363
2011-06-16 11:30:36 51°24.49 3°6.08 16.5793 4.147453 32.224752 -3.020363
2011-06-16 11:31:36 51°24.52 3°5.973 16.5858 4.147245 32.222955 -3.020363
2011-06-16 11:32:36 51°24.594 3°5.919 16.5895 4.154087 32.278372 -3.020363
2011-06-16 11:33:36 51°24.688 3°5.971 16.6007 4.155331 32.283289 -3.020363
2011-06-16 11:34:36 51°24.722 3°6.149 16.5944 4.163002 32.344586 -3.020363
2011-06-16 11:35:36 51°24.728 3°6.362 16.59 4.164557 32.362647 -3.020363
2011-06-16 11:36:36 51°24.732 3°6.582 16.595 4.163832 32.358314 -3.020363
2011-06-16 11:37:36 51°24.737 3°6.805 16.5891 4.161966 32.341476 -3.020363
2011-06-16 11:38:36 51°24.799 3°7.011 16.5887 4.158752 32.31687 -3.020363
2011-06-16 11:39:36 51°24.945 3°7.001 16.5943 4.154502 32.281315 -3.020363
2011-06-16 11:40:36 51°25.137 3°6.943 16.5876 4.160203 32.321621 -3.020363
2011-06-16 11:41:36 51°25.346 3°6.939 16.5648 4.165905 32.382188 -3.020363
2011-06-16 11:42:36 51°25.558 3°6.94 16.5459 4.163417 32.377614 -3.020363
2011-06-16 11:43:36 51°25.769 3°6.935 16.5181 4.169638 32.448016 -3.020363
2011-06-16 11:44:36 51°25.981 3°6.926 16.5067 4.1714 32.483044 -3.020363
2011-06-16 11:45:36 51°26.193 3°6.92 16.4791 4.17223 32.502759 -3.020363
2011-06-16 11:46:36 51°26.407 3°6.922 16.4511 4.172127 32.524261 -3.020363
2011-06-16 11:47:36 51°26.618 3°6.91 16.4448 4.171609 32.536902 -3.020363
2011-06-16 11:48:36 51°26.831 3°6.903 16.4398 4.17109 32.535689 -3.020363
2011-06-16 11:49:36 51°27.043 3°6.9 16.4355 4.170572 32.535137 -3.020363
2011-06-16 11:50:36 51°27.191 3°6.906 16.432 4.17109 32.544274 -3.020363
2011-06-16 11:51:36 51°27.285 3°6.977 16.4207 4.172024 32.557026 -3.020363
2011-06-16 11:52:36 51°27.363 3°7.072 16.4162 4.172749 32.571282 -3.020363
2011-06-16 11:53:36 51°27.439 3°7.157 16.4123 4.173164 32.580188 -3.020363
2011-06-16 11:54:36 51°27.515 3°7.238 16.4048 4.173683 32.591988 -3.020363
2011-06-16 11:55:36 51°27.589 3°7.324 16.3895 4.174616 32.606083 -3.020363
2011-06-16 11:56:36 51°27.658 3°7.432 16.3869 4.175031 32.618316 -3.020363
2011-06-16 11:57:36 51°27.724 3°7.55 16.3788 4.175445 32.629228 -3.020363
2011-06-16 11:58:36 51°27.789 3°7.666 16.368 4.176275 32.639782 -3.020363
2011-06-16 11:59:36 51°27.849 3°7.782 16.3678 4.176482 32.646902 -3.020363
2011-06-16 12:00:36 51°27.902 3°7.905 16.362 4.177208 32.653235 -3.020363
2011-06-16 12:01:36 51°27.951 3°8.033 16.3586 4.177623 32.663498 -3.020363
2011-06-16 12:02:36 51°28.002 3°8.16 16.3566 4.178141 32.669352 -3.020363
2011-06-16 12:03:36 51°28.054 3°8.284 16.3523 4.178556 32.674966 -3.020363
2011-06-16 12:04:36 51°28.085 3°8.424 16.3505 4.178971 32.679251 -3.020363
2011-06-16 12:05:36 51°28.075 3°8.558 16.3456 4.179904 32.689393 -3.020363
2011-06-16 12:06:36 51°28.041 3°8.658 16.3493 4.179904 32.691388 -3.020363
2011-06-16 12:07:36 51°27.996 3°8.711 16.3486 4.1798 32.689153 -3.020363
2011-06-16 12:08:36 51°27.961 3°8.68 16.3506 4.179489 32.685772 -3.020363
2011-06-16 12:09:36 51°27.931 3°8.569 16.3562 4.178971 32.681246 -3.020363
2011-06-16 12:10:36 51°27.872 3°8.454 16.3593 4.179178 32.678402 -3.020363
2011-06-16 12:11:36 51°27.814 3°8.35 16.3632 4.179178 32.675743 -3.020363
2011-06-16 12:12:36 51°27.764 3°8.259 16.3688 4.178556 32.66699 -3.020363
2011-06-16 12:13:36 51°27.722 3°8.167 16.3734 4.178141 32.656729 -3.020363
2011-06-16 12:14:36 51°27.683 3°8.076 16.3806 4.177415 32.648405 -3.020363
2011-06-16 12:15:36 51°27.639 3°7.989 16.3866 4.177104 32.640382 -3.020363
2011-06-16 12:16:36 51°27.592 3°7.906 16.3961 4.176897 32.633929 -3.020363
2011-06-16 12:17:36 51°27.549 3°7.821 16.3951 4.176275 32.624525 -3.020363
2011-06-16 12:18:36 51°27.511 3°7.732 16.407 4.175963 32.617172 -3.020363
2011-06-16 12:19:36 51°27.473 3°7.644 16.4096 4.175963 32.609221 -3.020363
2011-06-16 12:20:36 51°27.43 3°7.559 16.4144 4.175238 32.600908 -3.020363
2011-06-16 12:21:36 51°27.385 3°7.477 16.426 4.174512 32.589287 -3.020363
2011-06-16 12:22:36 51°27.344 3°7.39 16.4325 4.174097 32.579719 -3.020363
2011-06-16 12:23:36 51°27.305 3°7.303 16.4369 4.173579 32.569251 -3.020363
2011-06-16 12:24:36 51°27.265 3°7.215 16.4337 4.172957 32.561188 -3.020363
2011-06-16 12:25:36 51°27.221 3°7.131 16.4362 4.172127 32.553964 -3.020363
2011-06-16 12:26:36 51°27.179 3°7.045 16.4398 4.172231 32.552885 -3.020363
2011-06-16 12:27:36 51°27.143 3°6.956 16.4427 4.172438 32.552709 -3.020363
2011-06-16 12:28:36 51°27.105 3°6.866 16.4504 4.172542 32.55163 -3.020363
2011-06-16 12:29:36 51°27.062 3°6.782 16.4548 4.172749 32.548152 -3.020363
2011-06-16 12:30:36 51°27.021 3°6.696 16.4565 4.172749 32.544851 -3.020363
2011-06-16 12:31:36 51°26.984 3°6.602 16.4579 4.172438 32.538842 -3.020363
2011-06-16 12:32:36 51°26.946 3°6.508 16.4691 4.172023 32.533913 -3.020363
2011-06-16 12:33:36 51°26.907 3°6.417 16.4744 4.172023 32.529294 -3.020363
2011-06-16 12:34:36 51°26.867 3°6.328 16.4828 4.171816 32.522214 -3.020363
2011-06-16 12:35:36 51°26.828 3°6.241 16.4976 4.171919 32.512569 -3.020363
2011-06-16 12:36:36 51°26.814 3°6.142 16.5094 4.17223 32.505393 -3.020363
2011-06-16 12:37:36 51°26.887 3°6.089 16.5177 4.172541 32.496906 -3.020363
2011-06-16 12:38:36 51°26.979 3°6.169 16.5172 4.172955 32.496562 -3.020363
2011-06-16 12:39:36 51°27.045 3°6.311 16.518 4.174096 32.503843 -3.020363
2011-06-16 12:40:36 51°27.112 3°6.444 16.5143 4.174511 32.511397 -3.020363
2011-06-16 12:41:36 51°27.182 3°6.57 16.508 4.174925 32.515661 -3.020363
2011-06-16 12:42:36 51°27.248 3°6.699 16.4998 4.174925 32.522906 -3.020363
2011-06-16 12:43:36 51°27.313 3°6.828 16.4965 4.175547 32.532269 -3.020363
2011-06-16 12:44:36 51°27.377 3°6.96 16.4869 4.176377 32.543439 -3.020363
2011-06-16 12:45:36 51°27.439 3°7.094 16.4774 4.177206 32.55791 -3.020363
2011-06-16 12:46:36 51°27.5 3°7.228 16.4595 4.177518 32.572499 -3.020363
2011-06-16 12:47:36 51°27.561 3°7.362 16.4608 4.177829 32.582474 -3.020363
2011-06-16 12:48:36 51°27.624 3°7.49 16.458 4.179073 32.590662 -3.020363
2011-06-16 12:49:36 51°27.69 3°7.618 16.4541 4.179798 32.602269 -3.020363
2011-06-16 12:50:36 51°27.754 3°7.746 16.4427 4.180213 32.610511 -3.020363
2011-06-16 12:51:36 51°27.815 3°7.879 16.4438 4.18011 32.617549 -3.020363
2011-06-16 12:52:36 51°27.876 3°8.014 16.4338 4.180524 32.619176 -3.020363
2011-06-16 12:53:36 51°27.937 3°8.147 16.4241 4.179177 32.618026 -3.020363
2011-06-16 12:54:36 51°28 3°8.277 16.4262 4.178866 32.618627 -3.020363
2011-06-16 12:55:36 51°28.065 3°8.405 16.4299 4.178866 32.618627 -3.020363
2011-06-16 12:56:36 51°28.121 3°8.535 16.421 4.179695 32.623205 -3.020363
2011-06-16 12:57:36 51°28.121 3°8.656 16.4152 4.178762 32.61971 -3.020363
2011-06-16 12:58:36 51°28.086 3°8.708 16.4169 4.179799 32.63007 -3.020363
2011-06-16 12:59:36 51°28.059 3°8.666 16.4344 4.179902 32.616404 -3.020363
2011-06-16 13:00:36 51°28.022 3°8.589 16.4678 4.179591 32.609724 -3.020363
2011-06-16 13:01:36 51°27.964 3°8.524 16.451 4.180939 32.595672 -3.020363
2011-06-16 13:02:36 51°27.906 3°8.45 16.4492 4.179073 32.586036 -3.020363
2011-06-16 13:03:36 51°27.849 3°8.373 16.4629 4.177829 32.573225 -3.020363
2011-06-16 13:04:36 51°27.798 3°8.267 16.4965 4.178036 32.564467 -3.020363
2011-06-16 13:05:36 51°27.839 3°8.079 16.4798 4.180938 32.571903 -3.020363
2011-06-16 13:06:36 51°27.966 3°7.878 16.4539 4.182286 32.59617 -3.020363
2011-06-16 13:07:36 51°28.1 3°7.626 16.4441 4.18436 32.626774 -3.020363
2011-06-16 13:08:36 51°28.218 3°7.356 16.385 4.187263 32.67457 -3.020363
2011-06-16 13:09:36 51°28.338 3°7.087 16.3656 4.189959 32.746567 -3.020363
2011-06-16 13:10:36 51°28.461 3°6.822 16.3788 4.195247 32.794046 -3.020363
2011-06-16 13:11:36 51°28.593 3°6.572 16.4572 4.201052 32.816714 -3.020363
2011-06-16 13:12:36 51°28.752 3°6.359 16.5064 4.204784 32.804645 -3.020363
2011-06-16 13:13:36 51°28.922 3°6.16 16.4986 4.205716 32.787515 -3.020363
2011-06-16 13:14:36 51°29.092 3°5.959 16.5716 4.205716 32.788179 -3.020363
2011-06-16 13:15:36 51°29.259 3°5.754 16.667 4.203642 32.699928 -3.020363
2011-06-16 13:16:36 51°29.42 3°5.545 16.7173 4.200219 32.591867 -3.020363
2011-06-16 13:17:36 51°29.579 3°5.333 16.6427 4.197005 32.532566 -3.020363
2011-06-16 13:18:36 51°29.701 3°5.083 16.625 4.200012 32.626885 -3.020363
2011-06-16 13:19:36 51°29.796 3°4.81 16.6544 4.196902 32.611093 -3.020363
2011-06-16 13:20:36 51°29.897 3°4.539 16.6004 4.196798 32.594406 -3.020363
2011-06-16 13:21:36 51°29.995 3°4.265 16.6353 4.195762 32.62754 -3.020363
2011-06-16 13:22:36 51°30.066 3°3.977 16.6868 4.192444 32.561905 -3.020363
2011-06-16 13:23:36 51°30.142 3°3.688 16.6095 4.200841 32.617629 -3.020363
2011-06-16 13:24:36 51°30.17 3°3.391 16.3388 4.218364 32.849755 -3.020363
2011-06-16 13:25:36 51°30.139 3°3.097 16.2063 4.235371 33.212098 -3.020363
2011-06-16 13:26:36 51°30.108 3°2.805 16.2331 4.237446 33.298147 -3.020363
2011-06-16 13:27:36 51°30.099 3°2.511 16.2795 4.239209 33.303417 -3.020363
2011-06-16 13:28:36 51°30.094 3°2.221 16.3209 4.240141 33.263379 -3.020363
2011-06-16 13:29:36 51°30.085 3°1.934 16.3227 4.242525 33.257161 -3.020363
2011-06-16 13:30:36 51°30.069 3°1.651 16.3391 4.243873 33.271678 -3.020363
2011-06-16 13:31:36 51°30.062 3°1.365 16.3297 4.244288 33.257696 -3.020363
2011-06-16 13:32:36 51°30.058 3°1.081 16.3442 4.246569 33.287834 -3.020363
2011-06-16 13:33:36 51°30.042 3°0.801 16.3601 4.249887 33.307401 -3.020363
2011-06-16 13:34:36 51°30.033 3°0.52 16.4091 4.247709 33.260571 -3.020363
2011-06-16 13:35:36 51°30.027 3°0.237 16.41 4.243561 33.202005 -3.020363
2011-06-16 13:36:36 51°30.014 2°59.957 16.4224 4.23931 33.162151 -3.020363
2011-06-16 13:37:36 51°29.993 2°59.81 16.4193 4.236303 33.124432 -3.020363
2011-06-16 13:38:36 51°29.959 2°59.767 16.3987 4.235888 33.126865 -3.020363
2011-06-16 13:39:36 51°29.934 2°59.72 16.3738 4.236303 33.145304 -3.020363
2011-06-16 13:40:36 51°29.91 2°59.643 16.3535 4.236718 33.169157 -3.020363
2011-06-16 13:41:36 51°29.878 2°59.567 16.3441 4.239103 33.205552 -3.020363
2011-06-16 13:42:36 51°29.837 2°59.499 16.3446 4.244288 33.254988 -3.020363
2011-06-16 13:43:36 51°29.793 2°59.434 16.3393 4.248331 33.293103 -3.020363
2011-06-16 13:44:36 51°29.753 2°59.364 16.3329 4.250094 33.311251 -3.020363
2011-06-16 13:45:36 51°29.716 2°59.289 16.3209 4.251442 33.327128 -3.020363
2011-06-16 13:46:36 51°29.676 2°59.22 16.3182 4.252375 33.34413 -3.020363
2011-06-16 13:47:36 51°29.631 2°59.156 16.2842 4.253412 33.364091 -3.020363
2011-06-16 13:48:36 51°29.59 2°59.09 16.2705 4.254968 33.397463 -3.020363
2011-06-16 13:49:36 51°29.553 2°59.02 16.2384 4.257042 33.436793 -3.020363
2011-06-16 13:50:36 51°29.516 2°58.949 16.2376 4.258909 33.470938 -3.020363
2011-06-16 13:51:36 51°29.476 2°58.884 16.2055 4.260983 33.495994 -3.020363
2011-06-16 13:52:36 51°29.434 2°58.819 16.1423 4.263783 33.552123 -3.020363
2011-06-16 13:53:36 51°29.392 2°58.753 16.0789 4.266791 33.636363 -3.020363
2011-06-16 13:54:36 51°29.354 2°58.677 16.026 4.268969 33.693532 -3.020363
2011-06-16 13:55:36 51°29.316 2°58.603 15.9928 4.271355 33.758916 -3.020363
2011-06-16 13:56:36 51°29.272 2°58.533 15.9674 4.272599 33.802566 -3.020363
2011-06-16 13:57:36 51°29.228 2°58.464 15.9521 4.273429 33.829395 -3.020363
2011-06-16 13:58:36 51°29.188 2°58.392 15.9385 4.27457 33.847156 -3.020363
2011-06-16 13:59:36 51°29.148 2°58.315 15.9181 4.276229 33.877892 -3.020363
2011-06-16 14:00:36 51°29.108 2°58.238 15.927 4.277992 33.905385 -3.020363
2011-06-16 14:01:36 51°29.068 2°58.164 15.9245 4.280481 33.921842 -3.020363
2011-06-16 14:02:36 51°29.024 2°58.095 15.9109 4.281725 33.937764 -3.020363
2011-06-16 14:03:36 51°28.984 2°58.023 15.9033 4.282036 33.951721 -3.020363
2011-06-16 14:04:36 51°28.944 2°57.948 15.9032 4.28214 33.958244 -3.020363
2011-06-16 14:05:36 51°28.905 2°57.872 15.9021 4.282555 33.961921 -3.020363
2011-06-16 14:06:36 51°28.887 2°57.781 15.8976 4.283073 33.965117 -3.020363
2011-06-16 14:07:36 51°28.953 2°57.709 15.9038 4.283799 33.974356 -3.020363
2011-06-16 14:08:36 51°29.064 2°57.768 15.9111 4.285458 33.986965 -3.020363
2011-06-16 14:09:36 51°29.157 2°57.914 15.9237 4.289191 34.013755 -3.020363
2011-06-16 14:10:36 51°29.245 2°58.066 15.919 4.290954 34.020967 -3.020363
2011-06-16 14:11:36 51°29.332 2°58.221 15.8983 4.289191 34.010949 -3.020363
2011-06-16 14:12:36 51°29.416 2°58.377 15.8842 4.28577 33.997439 -3.020363
2011-06-16 14:13:36 51°29.497 2°58.537 15.864 4.283281 33.987289 -3.020363
2011-06-16 14:14:36 51°29.579 2°58.696 15.8619 4.280585 33.975996 -3.020363
2011-06-16 14:15:36 51°29.656 2°58.834 15.8586 4.278926 33.965482 -3.020363
2011-06-16 14:16:36 51°29.727 2°58.953 15.8427 4.276749 33.953872 -3.020363
2011-06-16 14:17:36 51°29.793 2°59.067 15.8412 4.274986 33.945239 -3.020363
2011-06-16 14:18:36 51°29.856 2°59.176 15.8442 4.273638 33.93748 -3.020363
2011-06-16 14:19:36 51°29.915 2°59.286 15.8461 4.273223 33.930291 -3.020363
2011-06-16 14:20:36 51°29.974 2°59.395 15.8419 4.273016 33.927749 -3.020363
2011-06-16 14:21:36 51°30.031 2°59.508 15.8436 4.27229 33.923409 -3.020363
2011-06-16 14:22:36 51°30.087 2°59.621 15.8507 4.272083 33.918064 -3.020363
2011-06-16 14:23:36 51°30.144 2°59.733 15.8435 4.271772 33.913901 -3.020363
2011-06-16 14:24:36 51°30.203 2°59.842 15.8499 4.271046 33.912364 -3.020363
2011-06-16 14:25:36 51°30.265 2°59.949 15.851 4.270631 33.904478 -3.020363
2011-06-16 14:26:36 51°30.327 3°0.057 15.8609 4.270216 33.894494 -3.020363
2011-06-16 14:27:36 51°30.388 3°0.167 15.8617 4.269801 33.885913 -3.020363
2011-06-16 14:28:36 51°30.447 3°0.282 15.8789 4.268868 33.872037 -3.020363
2011-06-16 14:29:36 51°30.505 3°0.399 15.8888 4.268557 33.858091 -3.020363
2011-06-16 14:30:36 51°30.532 3°0.526 15.9026 4.268142 33.843934 -3.020363
2011-06-16 14:31:36 51°30.522 3°0.628 15.9052 4.268453 33.836917 -3.020363
2011-06-16 14:32:36 51°30.497 3°0.678 15.9091 4.267623 33.823287 -3.020363
2011-06-16 14:33:36 51°30.464 3°0.67 15.9022 4.267001 33.819867 -3.020363
2011-06-16 14:34:36 51°30.425 3°0.61 15.8978 4.266586 33.820378 -3.020363
2011-06-16 14:35:36 51°30.381 3°0.536 15.881 4.267105 33.832649 -3.020363
2011-06-16 14:36:36 51°30.336 3°0.45 15.8642 4.267727 33.851434 -3.020363
2011-06-16 14:37:36 51°30.294 3°0.357 15.8488 4.26835 33.873034 -3.020363
2011-06-16 14:38:36 51°30.252 3°0.263 15.8338 4.268972 33.888353 -3.020363
2011-06-16 14:39:36 51°30.203 3°0.179 15.8252 4.26918 33.902102 -3.020363
2011-06-16 14:40:36 51°30.156 3°0.095 15.8313 4.269387 33.90885 -3.020363
2011-06-16 14:41:36 51°30.109 3°0.008 15.8348 4.269802 33.909729 -3.020363
2011-06-16 14:42:36 51°30.063 2°59.921 15.8333 4.270424 33.911046 -3.020363
2011-06-16 14:43:36 51°30.022 2°59.832 15.8274 4.270631 33.916392 -3.020363
2011-06-16 14:44:36 51°29.976 2°59.738 15.8399 4.271565 33.924678 -3.020363
2011-06-16 14:45:36 51°29.879 2°59.547 15.8456 4.272912 33.928932 -3.020363
2011-06-16 14:46:36 51°29.719 2°59.455 15.8653 4.274364 33.934807 -3.020363
2011-06-16 14:47:36 51°29.535 2°59.433 15.9083 4.277267 33.934638 -3.020363
2011-06-16 14:48:36 51°29.359 2°59.374 15.933 4.277681 33.913116 -3.020363
2011-06-16 14:49:36 51°29.189 2°59.282 15.9758 4.27934 33.893572 -3.020363
2011-06-16 14:50:36 51°29.023 2°59.172 16.0147 4.279858 33.86677 -3.020363
2011-06-16 14:51:36 51°28.856 2°59.069 16.0129 4.279132 33.847116 -3.020363
2011-06-16 14:52:36 51°28.684 2°58.971 16.0183 4.278095 33.823338 -3.020363
2011-06-16 14:53:36 51°28.513 2°58.869 16.0438 4.276746 33.799613 -3.020363
2011-06-16 14:54:36 51°28.344 2°58.764 16.0493 4.273117 33.762694 -3.020363
2011-06-16 14:55:36 51°28.173 2°58.662 16.0628 4.268658 33.713619 -3.020363
2011-06-16 14:56:36 51°28 2°58.562 16.0478 4.266688 33.681702 -3.020363
2011-06-16 14:57:36 51°27.827 2°58.459 16.0452 4.263577 33.657709 -3.020363
2011-06-16 14:58:36 51°27.655 2°58.338 16.066 4.262126 33.638686 -3.020363
2011-06-16 14:59:36 51°27.482 2°58.231 16.0699 4.262333 33.629473 -3.020363
2011-06-16 15:00:36 51°27.307 2°58.125 16.0777 4.261296 33.61757 -3.020363
2011-06-16 15:01:36 51°27.132 2°58.017 16.0934 4.261503 33.612504 -3.020363
2011-06-16 15:02:36 51°26.962 2°57.902 16.0944 4.262954 33.612893 -3.020363
2011-06-16 15:03:36 51°26.791 2°57.788 16.1045 4.263058 33.608984 -3.020363
2011-06-16 15:04:36 51°26.617 2°57.684 16.1349 4.264095 33.606412 -3.020363
2011-06-16 15:05:36 51°26.445 2°57.58 16.1732 4.264717 33.590559 -3.020363
2011-06-16 15:06:36 51°26.277 2°57.47 16.2268 4.263575 33.544811 -3.020363
2011-06-16 15:07:36 51°26.109 2°57.362 16.2805 4.261501 33.487552 -3.020363
2011-06-16 15:08:36 51°25.939 2°57.259 16.3372 4.259841 33.421129 -3.020363
2011-06-16 15:09:36 51°25.769 2°57.153 16.3556 4.259219 33.387778 -3.020363
2011-06-16 15:10:36 51°25.601 2°57.048 16.4094 4.258907 33.366033 -3.020363
2011-06-16 15:11:36 51°25.432 2°56.948 16.4559 4.257766 33.309292 -3.020363
2011-06-16 15:12:36 51°25.261 2°56.845 16.4879 4.258284 33.270579 -3.020363
2011-06-16 15:13:36 51°25.088 2°56.736 16.4864 4.257039 33.249602 -3.020363
2011-06-16 15:14:36 51°24.915 2°56.629 16.4989 4.257039 33.240842 -3.020363
2011-06-16 15:15:36 51°24.744 2°56.52 16.5288 4.256624 33.233182 -3.020363
2011-06-16 15:16:36 51°24.569 2°56.413 16.5013 4.257972 33.240226 -3.020363
2011-06-16 15:17:36 51°24.394 2°56.308 16.4985 4.260875 33.271621 -3.020363
2011-06-16 15:18:36 51°24.222 2°56.192 16.4875 4.265127 33.306694 -3.020363
2011-06-16 15:19:36 51°24.049 2°56.077 16.4805 4.268341 33.346911 -3.020363
2011-06-16 15:20:36 51°23.874 2°55.968 16.4596 4.270311 33.369525 -3.020363
2011-06-16 15:21:36 51°23.704 2°55.854 16.4535 4.270415 33.386679 -3.020363
2011-06-16 15:22:36 51°23.533 2°55.743 16.45 4.271141 33.393699 -3.020363
2011-06-16 15:23:36 51°23.359 2°55.634 16.4464 4.268756 33.386409 -3.020363
2011-06-16 15:24:36 51°23.187 2°55.516 16.4706 4.266475 33.356991 -3.020363
2011-06-16 15:25:36 51°23.01 2°55.412 16.4723 4.26212 33.30205 -3.020363
2011-06-16 15:26:37 51°22.83 2°55.299 16.503 4.259217 33.274678 -3.020363
2011-06-16 15:27:36 51°22.655 2°55.182 16.5308 4.264504 33.292495 -3.020363
2011-06-16 15:28:37 51°22.475 2°55.063 16.5422 4.270725 33.32585 -3.020363
2011-06-16 15:29:36 51°22.296 2°54.958 16.5523 4.272073 33.332208 -3.020363
2011-06-16 15:30:36 51°22.113 2°54.847 16.5568 4.275806 33.365435 -3.020363
2011-06-16 15:31:36 51°21.934 2°54.73 16.6057 4.286382 33.431306 -3.020363
2011-06-16 15:32:36 51°21.754 2°54.617 16.6369 4.292085 33.453295 -3.020363
2011-06-16 15:33:36 51°21.575 2°54.5 16.6222 4.297477 33.485396 -3.020363
2011-06-16 15:34:36 51°21.394 2°54.382 16.5908 4.304528 33.554277 -3.020363
2011-06-16 15:35:36 51°21.212 2°54.27 16.5761 4.317595 33.685183 -3.020363
2011-06-16 15:36:36 51°21.031 2°54.165 16.5216 4.335121 33.868934 -3.020363
2011-06-16 15:37:36 51°20.854 2°54.055 16.457 4.351922 34.055067 -3.020363
2011-06-16 15:38:36 51°20.677 2°53.944 16.4124 4.356071 34.132201 -3.020363
2011-06-16 15:39:36 51°20.498 2°53.835 16.3871 4.364161 34.251792 -3.020363
2011-06-16 15:40:36 51°20.314 2°53.74 16.3327 4.365821 34.293559 -3.020363
2011-06-16 15:41:36 51°20.133 2°53.628 16.2423 4.374222 34.406621 -3.020363
2011-06-16 15:42:36 51°19.95 2°53.525 16.1794 4.384802 34.582944 -3.020363
2011-06-16 15:43:36 51°19.768 2°53.42 16.141 4.386877 34.64091 -3.020363
2011-06-16 15:44:36 51°19.584 2°53.31 16.1532 4.386774 34.660567 -3.020363
2011-06-16 15:45:36 51°19.402 2°53.199 16.1218 4.386256 34.673736 -3.020363
2011-06-16 15:46:37 51°19.216 2°53.087 16.1604 4.385426 34.667815 -3.020363
2011-06-16 15:47:36 51°19.037 2°52.98 16.1766 4.385218 34.652486 -3.020363
2011-06-16 15:48:36 51°18.855 2°52.872 16.1802 4.384388 34.628124 -3.020363
2011-06-16 15:49:36 51°18.669 2°52.79 16.2209 4.385218 34.619866 -3.020363
2011-06-16 15:50:36 51°18.475 2°52.747 16.1799 4.388018 34.648157 -3.020363
2011-06-16 15:51:36 51°18.281 2°52.701 16.1913 4.389781 34.673675 -3.020363
2011-06-16 15:52:36 51°18.087 2°52.647 16.1901 4.389055 34.671515 -3.020363
2011-06-16 15:53:36 51°17.893 2°52.599 16.1734 4.389263 34.6698 -3.020363
2011-06-16 15:54:36 51°17.7 2°52.541 16.1674 4.389367 34.670007 -3.020363
2011-06-16 15:55:36 51°17.505 2°52.487 16.175 4.388744 34.673734 -3.020363
2011-06-16 15:56:36 51°17.307 2°52.503 16.1785 4.388329 34.663676 -3.020363
2011-06-16 15:57:36 51°17.11 2°52.562 16.169 4.3875 34.664857 -3.020363
2011-06-16 15:58:36 51°16.918 2°52.657 16.1841 4.389989 34.677639 -3.020363
2011-06-16 15:59:36 51°16.725 2°52.75 16.242 4.393722 34.672326 -3.020363
2011-06-16 16:00:36 51°16.533 2°52.865 16.2484 4.394759 34.651023 -3.020363
2011-06-16 16:01:36 51°16.353 2°53.023 16.2694 4.397248 34.668037 -3.020363
2011-06-16 16:02:36 51°16.178 2°53.201 16.3198 4.39984 34.673219 -3.020363
2011-06-16 16:03:36 51°15.997 2°53.356 16.3899 4.401395 34.644521 -3.020363
2011-06-16 16:04:36 51°15.807 2°53.482 16.4277 4.402951 34.611677 -3.020363
2011-06-16 16:05:36 51°15.625 2°53.639 16.4605 4.403157 34.576216 -3.020363
2011-06-16 16:06:36 51°15.462 2°53.843 16.4612 4.400875 34.520385 -3.020363
2011-06-16 16:07:36 51°15.31 2°54.069 16.3903 4.402016 34.551443 -3.020363
2011-06-16 16:08:36 51°15.154 2°54.288 16.3137 4.400358 34.605762 -3.020363
2011-06-16 16:09:36 51°14.993 2°54.5 16.3664 4.395276 34.587789 -3.020363
2011-06-16 16:10:36 51°14.831 2°54.703 16.5034 4.393823 34.530673 -3.020363
2011-06-16 16:11:36 51°14.66 2°54.889 16.6915 4.398073 34.426636 -3.020363
2011-06-16 16:12:36 51°14.482 2°55.052 16.8322 4.388425 34.200248 -3.020363
2011-06-16 16:13:36 51°14.317 2°55.232 16.8826 4.294467 33.289892 -3.020363
2011-06-16 16:14:37 51°14.171 2°55.38 17.1429 0.134736 0.805083 -3.020363
2011-06-16 16:15:40 51°14.029 2°55.496 17.2006 0.07191 0.41896 -3.020363
2011-06-16 16:16:40 51°13.929 2°55.559 17.2827 0.057824 0.334583 -3.020363
2011-06-16 16:17:40 51°13.827 2°55.627 17.3543 0.051861 0.299179 -3.020363
2011-06-16 16:18:39 51°13.744 2°55.731 17.3813 0.048365 0.27849 -3.020363
2011-06-16 16:19:38 51°13.694 2°55.833 17.4636 0.045692 0.262709 -3.020363
2011-06-16 16:20:38 51°13.657 2°55.919 17.5077 0.043533 0.249974 -3.020363
2011-06-16 16:21:37 51°13.639 2°56.004 17.6212 0.041682 0.239083 -3.020363
2011-06-16 16:24:12 51°13.636 2°56.02 17.8132 0.037878 0.216715 -3.020363
2011-06-16 16:25:11 51°13.636 2°56.019 17.8831 0.03685 0.210674 -3.020363
2011-06-16 16:26:11 51°13.636 2°56.017 17.9517 0.036028 0.205834 -3.020363
2011-06-16 16:27:11 51°13.636 2°56.018 18.0246 0.035205 0.201005 -3.020363
2011-06-16 16:28:11 51°13.636 2°56.017 18.1333 0.034383 0.196174 -3.020363
2011-06-16 16:29:12 51°13.637 2°56.017 18.1773 0.033766 0.192542 -3.020363
2011-06-16 16:30:11 51°13.636 2°56.018 18.2642 0.033046 0.188324 -3.020363
2011-06-16 16:31:12 51°13.636 2°56.018 18.3483 0.032429 0.184698 -3.020363